createdAt,value
2022-08-11T00:02:02.293Z,16.20
2022-08-11T00:04:37.948Z,16.20
2022-08-11T00:07:26.625Z,16.10
2022-08-11T00:10:39.400Z,16.30
2022-08-11T00:13:08.009Z,16.00
2022-08-11T00:15:45.735Z,16.00
2022-08-11T00:22:34.818Z,16.20
2022-08-11T00:28:53.679Z,15.90
2022-08-11T00:31:32.316Z,15.80
2022-08-11T00:38:01.859Z,15.80
2022-08-11T00:45:05.619Z,15.80
2022-08-11T00:47:32.781Z,15.70
2022-08-11T00:50:29.637Z,15.70
2022-08-11T00:53:54.378Z,15.80
2022-08-11T00:56:46.552Z,15.70
2022-08-11T01:03:54.141Z,15.70
2022-08-11T01:06:58.686Z,15.80
2022-08-11T01:09:53.770Z,15.80
2022-08-11T01:12:58.388Z,15.60
2022-08-11T01:15:58.610Z,15.70
2022-08-11T01:18:56.560Z,15.80
2022-08-11T01:22:19.211Z,15.60
2022-08-11T01:25:04.419Z,15.50
2022-08-11T01:27:51.230Z,15.60
2022-08-11T01:31:02.505Z,15.50
2022-08-11T01:34:10.055Z,15.50
2022-08-11T01:36:56.882Z,15.40
2022-08-11T01:40:13.945Z,15.40
2022-08-11T01:42:59.709Z,15.40
2022-08-11T01:45:55.551Z,15.30
2022-08-11T01:48:57.105Z,15.20
2022-08-11T01:52:33.355Z,15.20
2022-08-11T01:55:21.646Z,15.10
2022-08-11T01:58:14.051Z,15.20
2022-08-11T02:01:00.873Z,15.30
2022-08-11T02:03:45.729Z,15.30
2022-08-11T02:14:42.943Z,15.10
2022-08-11T02:17:59.217Z,15.10
2022-08-11T02:20:56.095Z,15.10
2022-08-11T02:24:06.219Z,15.10
2022-08-11T02:30:42.163Z,15.30
2022-08-11T02:33:24.100Z,15.20
2022-08-11T02:36:42.815Z,15.10
2022-08-11T02:39:20.386Z,15.10
2022-08-11T02:42:33.424Z,15.00
2022-08-11T02:45:12.256Z,15.20
2022-08-11T03:00:19.528Z,15.10
2022-08-11T03:03:13.791Z,15.00
2022-08-11T03:06:19.786Z,15.00
2022-08-11T03:09:23.366Z,15.00
2022-08-11T03:12:20.065Z,15.10
2022-08-11T03:15:07.062Z,15.10
2022-08-11T03:18:14.627Z,15.10
2022-08-11T03:21:10.467Z,14.90
2022-08-11T03:24:06.010Z,14.80
2022-08-11T03:26:58.603Z,14.80
2022-08-11T03:30:03.101Z,15.00
2022-08-11T03:32:58.778Z,14.80
2022-08-11T03:35:26.758Z,14.80
2022-08-11T03:38:06.825Z,14.90
2022-08-11T03:42:04.200Z,14.80
2022-08-11T03:45:01.073Z,14.70
2022-08-11T03:47:55.577Z,14.60
2022-08-11T03:51:07.014Z,14.70
2022-08-11T03:54:25.710Z,14.60
2022-08-11T03:57:55.740Z,14.50
2022-08-11T04:00:39.010Z,14.40
2022-08-11T04:03:23.759Z,14.30
2022-08-11T04:06:38.562Z,14.30
2022-08-11T04:09:24.263Z,14.40
2022-08-11T04:13:00.975Z,14.40
2022-08-11T04:16:11.019Z,14.40
2022-08-11T04:18:50.732Z,14.60
2022-08-11T04:21:37.351Z,14.70
2022-08-11T04:24:39.303Z,14.60
2022-08-11T04:40:06.738Z,14.50
2022-08-11T04:43:13.614Z,14.50
2022-08-11T04:46:36.458Z,14.50
2022-08-11T04:49:38.983Z,14.60
2022-08-11T04:52:56.680Z,14.60
2022-08-11T04:56:05.098Z,14.70
2022-08-11T05:07:09.986Z,14.80
2022-08-11T05:09:51.785Z,14.70
2022-08-11T05:12:49.408Z,14.70
2022-08-11T05:19:21.474Z,14.90
2022-08-11T05:21:57.327Z,15.00
2022-08-11T05:25:10.165Z,15.10
2022-08-11T05:27:51.844Z,15.00
2022-08-11T05:30:20.185Z,15.00
2022-08-11T05:33:09.640Z,15.00
2022-08-11T05:36:01.349Z,15.00
2022-08-11T05:38:35.709Z,15.00
2022-08-11T05:41:04.393Z,15.00
2022-08-11T05:47:38.523Z,15.10
2022-08-11T05:50:15.278Z,15.10
2022-08-11T05:52:49.060Z,15.10
2022-08-11T05:55:25.500Z,15.10
2022-08-11T05:58:04.492Z,15.20
2022-08-11T06:00:42.463Z,15.20
2022-08-11T06:03:10.681Z,15.20
2022-08-11T06:05:51.773Z,15.30
2022-08-11T06:08:59.875Z,15.30
2022-08-11T06:11:43.270Z,15.30
2022-08-11T06:14:14.514Z,15.40
2022-08-11T06:20:23.875Z,15.40
2022-08-11T06:23:36.086Z,15.40
2022-08-11T06:26:10.867Z,15.50
2022-08-11T06:28:41.649Z,15.50
2022-08-11T06:31:18.593Z,15.50
2022-08-11T06:41:58.131Z,15.70
2022-08-11T06:44:40.304Z,15.60
2022-08-11T06:51:08.502Z,15.70
2022-08-11T06:54:03.057Z,15.70
2022-08-11T06:56:41.881Z,15.70
2022-08-11T07:03:34.503Z,15.70
2022-08-11T07:07:13.962Z,15.80
2022-08-11T07:10:26.586Z,15.80
2022-08-11T07:12:58.778Z,15.90
2022-08-11T07:16:11.521Z,15.90
2022-08-11T07:18:27.862Z,16.00
2022-08-11T07:22:00.410Z,16.10
2022-08-11T07:24:04.243Z,16.10
2022-08-11T07:26:33.588Z,16.10
2022-08-11T07:29:03.057Z,16.20
2022-08-11T07:31:37.201Z,16.20
2022-08-11T07:34:23.007Z,16.30
2022-08-11T07:36:55.718Z,16.30
2022-08-11T07:39:43.724Z,16.40
2022-08-11T07:42:15.535Z,16.40
2022-08-11T07:44:46.717Z,16.50
2022-08-11T07:51:24.116Z,16.60
2022-08-11T07:54:03.129Z,16.80
2022-08-11T07:57:09.079Z,16.80
2022-08-11T08:00:00.005Z,16.90
2022-08-11T08:02:24.568Z,16.90
2022-08-11T08:04:59.223Z,17.00
2022-08-11T08:07:27.235Z,17.00
2022-08-11T08:14:08.714Z,17.10
2022-08-11T08:16:38.696Z,17.20
2022-08-11T08:26:58.658Z,17.40
2022-08-11T08:29:36.861Z,17.50
2022-08-11T08:32:04.942Z,17.60
2022-08-11T08:34:50.171Z,17.60
2022-08-11T08:37:46.664Z,17.60
2022-08-11T08:40:13.861Z,17.70
2022-08-11T08:42:57.091Z,17.80
2022-08-11T08:45:26.821Z,17.80
2022-08-11T08:48:04.001Z,17.80
2022-08-11T08:50:52.530Z,18.00
2022-08-11T08:53:26.244Z,18.00
2022-08-11T08:55:55.892Z,18.00
2022-08-11T08:58:25.932Z,18.10
2022-08-11T09:00:58.608Z,18.10
2022-08-11T09:04:04.695Z,18.20
2022-08-11T09:06:15.726Z,18.30
2022-08-11T09:08:45.332Z,18.30
2022-08-11T09:11:54.202Z,18.30
2022-08-11T09:18:04.637Z,18.40
2022-08-11T09:28:47.658Z,18.70
2022-08-11T09:31:18.178Z,18.90
2022-08-11T09:34:41.599Z,18.90
2022-08-11T09:41:27.949Z,18.90
2022-08-11T09:44:15.954Z,19.10
2022-08-11T09:46:51.605Z,19.20
2022-08-11T09:50:02.931Z,19.20
2022-08-11T09:56:40.771Z,19.40
2022-08-11T09:59:09.330Z,19.50
2022-08-11T10:01:49.391Z,19.50
2022-08-11T10:04:24.990Z,19.50
2022-08-11T10:11:02.994Z,19.70
2022-08-11T10:14:04.862Z,19.80
2022-08-11T10:17:18.981Z,19.90
2022-08-11T10:20:02.747Z,19.90
2022-08-11T10:22:35.884Z,20.10
2022-08-11T10:25:05.100Z,20.20
2022-08-11T10:27:40.333Z,20.30
2022-08-11T10:30:20.721Z,20.50
2022-08-11T10:32:58.536Z,20.50
2022-08-11T10:40:38.438Z,20.90
2022-08-11T10:44:03.307Z,21.00
2022-08-11T10:46:30.182Z,21.30
2022-08-11T10:49:37.657Z,21.40
2022-08-11T10:52:05.378Z,21.50
2022-08-11T10:54:35.034Z,21.50
2022-08-11T11:02:18.014Z,22.00
2022-08-11T11:05:30.590Z,22.30
2022-08-11T11:08:21.865Z,22.50
2022-08-11T11:10:49.391Z,22.80
2022-08-11T11:13:17.031Z,23.00
2022-08-11T11:16:39.218Z,23.10
2022-08-11T11:35:58.887Z,24.70
2022-08-11T11:38:28.840Z,25.10
2022-08-11T11:40:56.485Z,25.20
2022-08-11T11:43:43.793Z,25.30
2022-08-11T11:46:11.466Z,25.40
2022-08-11T11:52:48.576Z,25.90
2022-08-11T11:55:16.373Z,26.10
2022-08-11T11:57:58.712Z,26.20
2022-08-11T12:04:41.291Z,26.70
2022-08-11T12:07:10.192Z,26.60
2022-08-11T12:09:38.484Z,26.40
2022-08-11T12:12:06.458Z,26.60
2022-08-11T12:14:34.570Z,26.30
2022-08-11T12:17:02.665Z,26.50
2022-08-11T12:19:35.861Z,26.70
2022-08-11T12:22:03.730Z,26.80
2022-08-11T12:24:34.126Z,26.80
2022-08-11T12:27:17.005Z,27.00
2022-08-11T12:29:54.881Z,27.10
2022-08-11T12:32:27.953Z,27.00
2022-08-11T12:34:55.369Z,26.70
2022-08-11T12:37:32.825Z,26.70
2022-08-11T12:40:43.256Z,26.30
2022-08-11T12:43:22.049Z,26.00
2022-08-11T12:45:59.201Z,26.00
2022-08-11T12:48:59.956Z,25.70
2022-08-11T12:51:28.834Z,25.50
2022-08-11T12:54:27.841Z,25.60
2022-08-11T12:57:13.795Z,26.10
2022-08-11T12:59:42.020Z,26.40
2022-08-11T13:02:17.284Z,26.50
2022-08-11T13:04:46.315Z,26.70
2022-08-11T13:07:18.904Z,27.00
2022-08-11T13:09:47.364Z,27.20
2022-08-11T13:12:16.099Z,27.40
2022-08-11T13:14:44.565Z,27.40
2022-08-11T13:17:13.611Z,27.40
2022-08-11T13:19:48.852Z,26.80
2022-08-11T13:22:20.915Z,26.60
2022-08-11T13:24:51.746Z,26.10
2022-08-11T13:27:19.836Z,25.70
2022-08-11T13:29:49.200Z,25.10
2022-08-11T13:32:18.938Z,25.10
2022-08-11T13:34:48.042Z,25.40
2022-08-11T13:37:16.675Z,25.80
2022-08-11T13:39:45.989Z,26.20
2022-08-11T13:42:16.944Z,26.40
2022-08-11T13:44:45.176Z,26.80
2022-08-11T13:47:16.221Z,26.80
2022-08-11T13:49:45.830Z,26.70
2022-08-11T13:52:16.656Z,26.70
2022-08-11T13:54:48.263Z,26.90
2022-08-11T13:58:18.180Z,26.80
2022-08-11T14:00:09.317Z,26.60
2022-08-11T14:02:42.154Z,26.60
2022-08-11T14:05:15.966Z,26.10
2022-08-11T14:07:53.995Z,25.70
2022-08-11T14:10:28.607Z,25.40
2022-08-11T14:13:02.498Z,25.30
2022-08-11T14:15:34.961Z,25.50
2022-08-11T14:18:11.511Z,25.80
2022-08-11T14:20:43.170Z,25.80
2022-08-11T14:28:29.554Z,26.30
2022-08-11T14:30:04.691Z,26.40
2022-08-11T14:32:32.936Z,26.20
2022-08-11T14:43:05.836Z,25.60
2022-08-11T14:45:57.885Z,25.50
2022-08-11T14:48:21.474Z,25.50
2022-08-11T14:50:48.891Z,25.40
2022-08-11T14:53:18.759Z,25.80
2022-08-11T14:55:47.301Z,26.20
2022-08-11T14:58:24.310Z,26.40
2022-08-11T15:00:58.880Z,26.80
2022-08-11T15:03:30.645Z,26.80
2022-08-11T15:06:01.360Z,26.70
2022-08-11T15:08:39.374Z,26.40
2022-08-11T15:11:07.013Z,26.20
2022-08-11T15:13:34.364Z,25.90
2022-08-11T15:16:05.833Z,25.60
2022-08-11T15:18:35.198Z,25.20
2022-08-11T15:21:02.488Z,25.00
2022-08-11T15:23:31.178Z,24.80
2022-08-11T15:26:03.416Z,24.50
2022-08-11T15:28:39.255Z,24.40
2022-08-11T15:31:06.862Z,24.40
2022-08-11T15:33:39.240Z,24.40
2022-08-11T15:36:10.436Z,24.50
2022-08-11T15:38:55.298Z,24.30
2022-08-11T15:41:46.605Z,24.10
2022-08-11T15:45:00.886Z,24.00
2022-08-11T15:47:28.884Z,23.80
2022-08-11T15:50:11.459Z,23.70
2022-08-11T15:52:52.717Z,23.60
2022-08-11T15:59:43.329Z,23.40
2022-08-11T16:02:18.828Z,23.20
2022-08-11T16:04:48.982Z,23.20
2022-08-11T16:07:20.899Z,23.10
2022-08-11T16:12:47.313Z,23.00
2022-08-11T16:15:14.658Z,23.10
2022-08-11T16:17:56.146Z,23.00
2022-08-11T16:20:27.703Z,23.00
2022-08-11T16:23:03.392Z,22.90
2022-08-11T16:29:32.114Z,22.80
2022-08-11T16:32:01.983Z,22.80
2022-08-11T16:34:30.382Z,22.60
2022-08-11T16:41:00.795Z,22.50
2022-08-11T16:47:17.773Z,22.30
2022-08-11T16:50:07.570Z,22.30
2022-08-11T16:52:35.180Z,22.20
2022-08-11T16:55:02.570Z,22.10
2022-08-11T17:01:33.644Z,22.00
2022-08-11T17:04:12.646Z,22.00
2022-08-11T17:06:47.096Z,21.90
2022-08-11T17:13:44.596Z,21.90
2022-08-11T17:16:16.033Z,21.70
2022-08-11T17:18:57.190Z,21.70
2022-08-11T17:21:39.567Z,21.60
2022-08-11T17:35:33.061Z,21.30
2022-08-11T17:42:48.703Z,21.10
2022-08-11T17:45:22.981Z,21.00
2022-08-11T17:47:51.224Z,20.90
2022-08-11T17:50:20.006Z,20.80
2022-08-11T17:52:48.532Z,20.80
2022-08-11T17:55:17.836Z,20.80
2022-08-11T17:58:05.862Z,20.70
2022-08-11T18:00:34.902Z,20.70
2022-08-11T18:03:05.189Z,20.60
2022-08-11T18:05:35.895Z,20.60
2022-08-11T18:08:13.334Z,20.50
2022-08-11T18:10:43.620Z,20.50
2022-08-11T18:13:24.694Z,20.40
2022-08-11T18:15:55.868Z,20.30
2022-08-11T18:18:23.769Z,20.30
2022-08-11T18:20:52.056Z,20.30
2022-08-11T18:23:40.482Z,20.30
2022-08-11T18:26:17.207Z,20.20
2022-08-11T18:28:51.651Z,20.20
2022-08-11T18:31:23.805Z,20.10
2022-08-11T18:34:06.955Z,20.10
2022-08-11T18:37:05.366Z,20.00
2022-08-11T18:39:42.095Z,20.00
2022-08-11T18:42:19.594Z,19.10
2022-08-11T18:45:02.903Z,19.90
2022-08-11T18:47:33.215Z,19.90
2022-08-11T18:50:05.480Z,19.90
2022-08-11T19:13:15.866Z,19.40
2022-08-11T19:15:45.346Z,19.30
2022-08-11T19:18:23.267Z,19.20
2022-08-11T19:20:54.768Z,19.20
2022-08-11T19:23:35.189Z,19.20
2022-08-11T19:26:05.420Z,19.10
2022-08-11T19:28:36.653Z,19.10
2022-08-11T19:31:07.269Z,19.00
2022-08-11T19:34:00.067Z,19.00
2022-08-11T19:36:26.074Z,18.90
2022-08-11T19:38:55.051Z,18.90
2022-08-11T19:41:52.098Z,18.80
2022-08-11T19:44:16.679Z,18.70
2022-08-11T19:46:45.340Z,18.80
2022-08-11T19:49:14.087Z,18.80
2022-08-11T19:52:20.599Z,18.70
2022-08-11T19:54:50.767Z,18.70
2022-08-11T19:57:20.481Z,18.80
2022-08-11T19:59:49.880Z,18.70
2022-08-11T20:02:18.063Z,18.70
2022-08-11T20:04:45.945Z,18.60
2022-08-11T20:07:14.902Z,18.50
2022-08-11T20:10:05.304Z,18.40
2022-08-11T20:12:36.745Z,18.30
2022-08-11T20:15:06.263Z,18.30
2022-08-11T20:17:40.120Z,18.30
2022-08-11T20:20:10.299Z,18.30
2022-08-11T20:22:40.061Z,18.30
2022-08-11T20:25:08.646Z,18.30
2022-08-11T20:27:39.625Z,18.10
2022-08-11T20:30:07.725Z,18.20
2022-08-11T20:32:39.707Z,18.20
2022-08-11T20:35:09.503Z,18.10
2022-08-11T20:37:40.421Z,18.10
2022-08-11T20:40:09.390Z,18.10
2022-08-11T20:42:38.879Z,18.20
2022-08-11T20:45:10.328Z,18.10
2022-08-11T20:47:59.040Z,18.00
2022-08-11T20:50:28.670Z,18.00
2022-08-11T20:52:57.764Z,17.90
2022-08-11T20:55:51.470Z,17.90
2022-08-11T20:58:18.364Z,17.80
2022-08-11T21:00:51.620Z,17.80
2022-08-11T21:03:35.521Z,17.70
2022-08-11T21:06:09.926Z,17.80
2022-08-11T21:08:42.535Z,17.70
2022-08-11T21:11:12.630Z,18.00
2022-08-11T21:13:46.134Z,17.70
2022-08-11T21:16:26.091Z,17.70
2022-08-11T21:19:06.399Z,17.70
2022-08-11T21:21:45.589Z,17.70
2022-08-11T21:28:16.026Z,17.50
2022-08-11T21:30:44.145Z,17.40
2022-08-11T21:33:13.716Z,17.30
2022-08-11T21:35:45.137Z,17.30
2022-08-11T21:38:15.367Z,17.40
2022-08-11T21:40:43.108Z,17.30
2022-08-11T21:43:13.919Z,17.30
2022-08-11T21:45:43.808Z,17.30
2022-08-11T21:48:13.294Z,17.30
2022-08-11T21:54:51.861Z,17.30
2022-08-11T21:57:20.353Z,17.20
2022-08-11T21:59:57.855Z,17.20
2022-08-11T22:02:27.259Z,17.20
2022-08-11T22:08:54.785Z,17.20
2022-08-11T22:15:32.167Z,17.20
2022-08-11T22:18:02.194Z,17.00
2022-08-11T22:20:32.222Z,17.00
2022-08-11T22:23:01.353Z,17.10
2022-08-11T22:25:38.341Z,17.00
2022-08-11T22:28:06.244Z,16.90
2022-08-11T22:30:34.022Z,16.90
2022-08-11T22:33:03.798Z,16.80
2022-08-11T22:35:33.202Z,16.80
2022-08-11T22:38:01.811Z,16.90
2022-08-11T22:40:29.142Z,16.90
2022-08-11T22:42:56.707Z,16.90
2022-08-11T22:45:23.973Z,17.00
2022-08-11T22:47:52.726Z,17.00
2022-08-11T22:50:21.240Z,17.00
2022-08-11T22:52:52.602Z,16.90
2022-08-11T22:55:21.654Z,16.80
2022-08-11T22:58:01.263Z,16.70
2022-08-11T23:00:30.499Z,16.60
2022-08-11T23:02:59.307Z,16.50
2022-08-11T23:05:27.797Z,16.50
2022-08-11T23:07:57.367Z,16.40
2022-08-11T23:10:26.424Z,16.40
2022-08-11T23:12:55.092Z,16.40
2022-08-11T23:15:24.038Z,16.50
2022-08-11T23:17:51.659Z,16.50
2022-08-11T23:20:35.442Z,16.30
2022-08-11T23:23:09.935Z,16.50
2022-08-11T23:29:51.253Z,16.30
2022-08-11T23:32:25.098Z,16.10
2022-08-11T23:35:54.849Z,16.20
2022-08-11T23:42:39.036Z,16.40
2022-08-11T23:45:09.883Z,16.20
2022-08-11T23:47:50.304Z,16.10
2022-08-11T23:50:19.163Z,16.00
2022-08-11T23:52:47.357Z,16.00
2022-08-11T23:55:15.271Z,15.90
2022-08-11T23:57:49.304Z,16.00
